Time;durP1;ratioP1;P1;durP2;ratioP2;P2;SDS_P1;SDS_P2;PMS_P1;PMS_P2;Temp;Humidity;BMP_temperature;BMP_pressure;BME280_temperature;BME280_humidity;BME280_pressure;Samples;Min_cycle;Max_cycle;Signal;HPM_P1;HPM_P2
2022/03/20 00:00:34;;;;;;;13.00;7.18;;;5.20;99.90;;;;;;5022387;28;20029;-72
2022/03/20 00:03:05;;;;;;;17.33;7.97;;;5.20;99.90;;;;;;5036451;28;20081;-72
2022/03/20 00:05:31;;;;;;;17.17;8.93;;;5.20;99.90;;;;;;5020748;28;20017;-72
2022/03/20 00:07:56;;;;;;;13.73;7.93;;;5.20;99.90;;;;;;5039711;28;20078;-72
2022/03/20 00:10:22;;;;;;;13.00;7.78;;;5.10;99.90;;;;;;5002572;28;20111;-72
2022/03/20 00:12:47;;;;;;;15.55;7.90;;;5.10;99.90;;;;;;5042528;28;20419;-72
2022/03/20 00:15:13;;;;;;;16.23;7.95;;;5.10;99.90;;;;;;5034885;28;20032;-72
2022/03/20 00:17:39;;;;;;;17.27;8.15;;;5.00;99.90;;;;;;5013900;28;20573;-73
2022/03/20 00:20:09;;;;;;;14.38;7.88;;;5.00;99.90;;;;;;5020111;28;20418;-72
2022/03/20 00:22:36;;;;;;;17.48;8.93;;;5.00;99.90;;;;;;5023159;28;20026;-72
2022/03/20 00:25:03;;;;;;;13.75;8.75;;;4.90;99.90;;;;;;5043264;28;20017;-71
2022/03/20 00:27:28;;;;;;;16.38;7.93;;;5.00;99.90;;;;;;5033596;28;20087;-73
2022/03/20 00:29:54;;;;;;;19.10;8.75;;;5.00;99.90;;;;;;5018604;28;20052;-73
2022/03/20 00:32:20;;;;;;;74.70;40.67;;;5.00;99.90;;;;;;5034446;28;20053;-71
2022/03/20 00:34:46;;;;;;;150.48;67.28;;;5.00;99.90;;;;;;5021259;28;20052;-72
2022/03/20 00:37:12;;;;;;;146.07;66.63;;;5.00;99.90;;;;;;5034514;28;20617;-72
2022/03/20 00:39:38;;;;;;;68.32;32.10;;;5.00;99.90;;;;;;5037979;28;20033;-72
2022/03/20 00:42:04;;;;;;;27.70;13.88;;;5.00;99.90;;;;;;5029660;28;20059;-72
2022/03/20 00:44:30;;;;;;;17.17;9.80;;;4.90;99.90;;;;;;5022402;28;20434;-72
2022/03/20 00:46:56;;;;;;;16.27;9.77;;;4.90;99.90;;;;;;5036551;28;20026;-72
2022/03/20 00:49:22;;;;;;;18.25;9.90;;;4.90;99.90;;;;;;5018172;28;20540;-72
2022/03/20 00:51:50;;;;;;;19.40;9.90;;;4.80;99.90;;;;;;5034258;28;20108;-72
2022/03/20 00:54:16;;;;;;;17.08;9.75;;;4.80;99.90;;;;;;5018683;28;20057;-72
2022/03/20 00:56:42;;;;;;;17.75;10.07;;;4.80;99.90;;;;;;5030864;28;20028;-72
2022/03/20 00:59:08;;;;;;;17.40;9.57;;;4.80;99.90;;;;;;5033873;28;20025;-72
2022/03/20 01:01:33;;;;;;;19.20;10.25;;;4.80;99.90;;;;;;5037084;28;20096;-72
2022/03/20 01:03:59;;;;;;;15.55;9.05;;;4.70;99.90;;;;;;5034886;28;20083;-72
2022/03/20 01:06:25;;;;;;;19.65;10.77;;;4.70;99.90;;;;;;5015151;28;20037;-72
2022/03/20 01:08:52;;;;;;;14.75;10.07;;;4.70;99.90;;;;;;5019071;28;20158;-72
2022/03/20 01:11:19;;;;;;;20.38;10.25;;;4.70;99.90;;;;;;5019299;28;20025;-72
2022/03/20 01:13:45;;;;;;;20.60;12.00;;;4.70;99.90;;;;;;5018638;28;20029;-72
2022/03/20 01:16:10;;;;;;;23.67;11.18;;;4.70;99.90;;;;;;5041180;28;20025;-72
2022/03/20 01:18:37;;;;;;;21.13;11.10;;;4.70;99.90;;;;;;5034734;28;20025;-72
2022/03/20 01:21:03;;;;;;;17.80;11.00;;;4.70;99.90;;;;;;5033267;28;20104;-72
2022/03/20 01:23:29;;;;;;;20.42;11.90;;;4.70;99.90;;;;;;5013083;28;20029;-72
2022/03/20 01:25:54;;;;;;;21.02;11.32;;;4.70;99.90;;;;;;5033750;28;20021;-72
2022/03/20 01:28:20;;;;;;;24.83;12.27;;;4.70;99.90;;;;;;5014153;28;20026;-72
2022/03/20 01:30:47;;;;;;;22.25;11.75;;;4.60;99.90;;;;;;5036635;28;20068;-72
2022/03/20 01:33:14;;;;;;;23.25;12.02;;;4.60;99.90;;;;;;5007852;28;20037;-72
2022/03/20 01:35:40;;;;;;;21.48;11.90;;;4.60;99.90;;;;;;5020255;28;20017;-72
2022/03/20 01:38:06;;;;;;;21.27;12.18;;;4.60;99.90;;;;;;5037358;28;20029;-72
2022/03/20 01:40:33;;;;;;;20.40;11.45;;;4.60;99.90;;;;;;5038326;28;20049;-72
2022/03/20 01:42:59;;;;;;;19.75;11.80;;;4.60;99.90;;;;;;5036116;28;20030;-72
2022/03/20 01:45:25;;;;;;;23.48;12.02;;;4.60;99.90;;;;;;5030789;28;20109;-71
2022/03/20 01:47:52;;;;;;;25.95;12.90;;;4.60;99.90;;;;;;5001019;28;20030;-72
2022/03/20 01:50:24;;;;;;;22.20;13.25;;;4.60;99.90;;;;;;5023820;28;20025;-71
2022/03/20 01:52:50;;;;;;;;;;;4.60;99.90;;;;;;5032898;28;20037;-72
2022/03/20 01:55:17;;;;;;;22.90;12.65;;;4.60;99.90;;;;;;5038022;28;19909;-72
2022/03/20 01:57:44;;;;;;;22.58;12.98;;;4.60;99.90;;;;;;5000086;28;20017;-71
2022/03/20 02:00:12;;;;;;;20.35;12.48;;;4.60;99.90;;;;;;5020543;28;20025;-71
2022/03/20 02:02:38;;;;;;;21.85;12.70;;;4.60;99.90;;;;;;5021919;28;20022;-71
2022/03/20 02:05:07;;;;;;;21.98;13.50;;;4.60;99.90;;;;;;5037808;28;20467;-72
2022/03/20 02:07:34;;;;;;;21.92;13.02;;;4.50;99.90;;;;;;5019787;28;20041;-71
2022/03/20 02:10:03;;;;;;;21.75;12.70;;;4.50;99.90;;;;;;5025566;28;20021;-72
2022/03/20 02:12:29;;;;;;;20.67;13.75;;;4.60;99.90;;;;;;5019355;28;20032;-72
2022/03/20 02:14:56;;;;;;;25.10;12.90;;;4.50;99.90;;;;;;5033608;28;20426;-72
2022/03/20 02:17:23;;;;;;;23.30;13.73;;;4.50;99.90;;;;;;5036771;28;20115;-72
2022/03/20 02:19:48;;;;;;;21.30;12.68;;;4.50;99.90;;;;;;5021832;28;20021;-71
2022/03/20 02:22:14;;;;;;;23.65;12.93;;;4.50;99.90;;;;;;5040692;28;20025;-73
2022/03/20 02:24:44;;;;;;;22.92;13.60;;;4.50;99.90;;;;;;5022961;28;20039;-72
2022/03/20 02:27:12;;;;;;;21.70;12.68;;;4.50;99.90;;;;;;5011544;22;20406;-74
2022/03/20 02:29:40;;;;;;;21.55;13.43;;;4.50;99.90;;;;;;5039879;28;20025;-72
2022/03/20 02:32:08;;;;;;;24.23;11.73;;;4.40;99.90;;;;;;5029118;28;20091;-73
2022/03/20 02:34:34;;;;;;;23.65;13.43;;;4.50;99.90;;;;;;5048084;28;20033;-72
2022/03/20 02:37:03;;;;;;;22.90;13.25;;;4.50;99.90;;;;;;5044352;28;20037;-73
2022/03/20 02:39:29;;;;;;;19.63;12.48;;;4.40;99.90;;;;;;5030216;28;20064;-73
2022/03/20 02:41:57;;;;;;;23.08;13.38;;;4.40;99.90;;;;;;5023247;28;20033;-73
2022/03/20 02:44:54;;;;;;;20.75;12.60;;;4.40;99.90;;;;;;5017321;28;20025;-72
2022/03/20 02:47:23;;;;;;;24.50;12.77;;;4.40;99.90;;;;;;5012962;28;20022;-73
2022/03/20 02:49:56;;;;;;;24.05;12.77;;;4.40;99.90;;;;;;5032024;28;20040;-73
2022/03/20 02:52:30;;;;;;;21.52;13.27;;;4.40;99.90;;;;;;5028090;28;20486;-73
2022/03/20 02:55:03;;;;;;;24.80;13.43;;;4.40;99.90;;;;;;5040627;28;20049;-72
2022/03/20 02:57:31;;;;;;;24.38;13.15;;;4.40;99.90;;;;;;5013894;28;20548;-73
2022/03/20 03:00:03;;;;;;;23.27;13.50;;;4.40;99.90;;;;;;5026173;28;20034;-73
2022/03/20 03:02:33;;;;;;;25.27;12.73;;;4.30;99.90;;;;;;5028491;28;20605;-72
2022/03/20 03:04:59;;;;;;;23.38;13.05;;;4.30;99.90;;;;;;5033186;28;20033;-73
2022/03/20 03:07:30;;;;;;;21.25;13.43;;;4.30;99.90;;;;;;5028779;28;20391;-72
2022/03/20 03:12:41;;;;;;;21.48;12.98;;;4.30;99.90;;;;;;5030248;28;20033;-72
2022/03/20 03:15:19;;;;;;;27.70;13.90;;;4.30;99.90;;;;;;5025985;28;20120;-72
2022/03/20 03:17:46;;;;;;;26.52;13.63;;;4.20;99.90;;;;;;5028980;28;20030;-73
2022/03/20 03:20:12;;;;;;;25.98;14.15;;;4.20;99.90;;;;;;5033839;28;20033;-73
2022/03/20 03:22:38;;;;;;;24.73;14.55;;;4.20;99.90;;;;;;5026078;28;20029;-73
2022/03/20 03:25:05;;;;;;;22.42;13.57;;;4.20;99.90;;;;;;5024817;28;20063;-73
2022/03/20 03:27:31;;;;;;;27.15;14.63;;;4.20;99.90;;;;;;5031280;28;20088;-72
2022/03/20 03:29:57;;;;;;;20.00;12.65;;;4.20;99.90;;;;;;5032926;28;20494;-73
2022/03/20 03:32:22;;;;;;;23.73;13.52;;;4.20;99.90;;;;;;5027799;28;20541;-72
2022/03/20 03:37:32;;;;;;;28.33;14.70;;;4.10;99.90;;;;;;5022354;28;20053;-72
2022/03/20 03:40:00;;;;;;;24.48;13.80;;;4.20;99.90;;;;;;5036443;28;20088;-73
2022/03/20 03:42:29;;;;;;;22.83;13.52;;;4.10;99.90;;;;;;5027562;28;20052;-73
2022/03/20 03:44:57;;;;;;;24.85;14.10;;;4.10;99.90;;;;;;5014949;28;20064;-73
2022/03/20 03:47:24;;;;;;;25.67;14.05;;;4.10;99.90;;;;;;5002595;28;20462;-73
2022/03/20 03:49:53;;;;;;;22.98;13.40;;;4.10;99.90;;;;;;5029365;28;20034;-73
2022/03/20 03:52:19;;;;;;;24.35;13.82;;;4.10;99.90;;;;;;5036876;28;20022;-72
2022/03/20 03:54:46;;;;;;;25.00;13.93;;;4.00;99.90;;;;;;5022508;28;20032;-73
2022/03/20 03:57:11;;;;;;;26.10;13.57;;;4.00;99.90;;;;;;5015455;28;20037;-73
2022/03/20 03:59:37;;;;;;;23.83;13.52;;;4.00;99.90;;;;;;5028909;28;20025;-73
2022/03/20 04:02:03;;;;;;;26.60;15.55;;;4.00;99.90;;;;;;5018950;28;20049;-73
2022/03/20 04:04:29;;;;;;;27.33;14.13;;;4.00;99.90;;;;;;5027235;28;20032;-73
2022/03/20 04:06:56;;;;;;;27.10;15.57;;;4.00;99.90;;;;;;5027894;28;20029;-72
2022/03/20 04:09:22;;;;;;;22.65;13.57;;;4.00;99.90;;;;;;5023781;28;20168;-72
2022/03/20 04:11:48;;;;;;;21.67;13.85;;;3.90;99.90;;;;;;5026640;28;20045;-72
2022/03/20 04:14:14;;;;;;;22.95;14.57;;;4.00;99.90;;;;;;5031054;28;20486;-72
2022/03/20 04:16:40;;;;;;;25.00;14.10;;;4.00;99.90;;;;;;5024202;28;20140;-72
2022/03/20 04:19:05;;;;;;;23.13;13.90;;;4.00;99.90;;;;;;5034253;28;20152;-72
2022/03/20 04:21:31;;;;;;;27.00;14.90;;;3.90;99.90;;;;;;5034110;28;20549;-72
2022/03/20 04:23:57;;;;;;;25.88;15.10;;;3.90;99.90;;;;;;5026408;28;20045;-72
2022/03/20 04:26:24;;;;;;;26.58;14.35;;;3.90;99.90;;;;;;5026187;28;20135;-72
2022/03/20 04:28:51;;;;;;;27.42;14.80;;;3.90;99.90;;;;;;5029812;28;20083;-73
2022/03/20 04:31:19;;;;;;;27.08;15.32;;;3.90;99.90;;;;;;5033328;28;20223;-72
2022/03/20 04:33:53;;;;;;;28.35;15.35;;;3.90;99.90;;;;;;5027450;28;20029;-72
2022/03/20 04:36:21;;;;;;;28.10;14.82;;;3.90;99.90;;;;;;5025050;28;20117;-72
2022/03/20 04:38:51;;;;;;;24.63;14.32;;;3.90;99.90;;;;;;5023878;28;20036;-72
2022/03/20 04:41:17;;;;;;;25.33;15.57;;;3.90;99.90;;;;;;5021514;28;20518;-73
2022/03/20 04:43:48;;;;;;;24.23;14.18;;;3.90;99.90;;;;;;5028345;28;20025;-73
2022/03/20 04:46:14;;;;;;;26.10;14.90;;;3.90;99.90;;;;;;5024833;28;20053;-72
2022/03/20 04:59:40;;;;;;;26.35;14.77;;;3.80;99.90;;;;;;5021403;28;20033;-72
2022/03/20 05:02:06;;;;;;;26.73;15.98;;;3.80;99.90;;;;;;5018733;28;20029;-72
2022/03/20 05:04:31;;;;;;;27.02;14.85;;;3.80;99.90;;;;;;5007538;28;20021;-72
2022/03/20 05:06:57;;;;;;;24.42;15.10;;;3.80;99.90;;;;;;5025699;28;20627;-72
2022/03/20 05:14:56;;;;;;;28.92;15.52;;;3.70;99.90;;;;;;5021427;28;20099;-72
2022/03/20 05:17:22;;;;;;;28.10;14.77;;;3.70;99.90;;;;;;5022198;28;20128;-72
2022/03/20 05:19:48;;;;;;;27.42;14.68;;;3.70;99.90;;;;;;5022064;28;20122;-72
2022/03/20 05:22:13;;;;;;;27.45;15.77;;;3.60;99.90;;;;;;5015339;28;20113;-72
2022/03/20 05:24:40;;;;;;;28.50;15.23;;;3.70;99.90;;;;;;5041442;28;20033;-72
2022/03/20 05:27:06;;;;;;;24.30;14.40;;;3.60;99.90;;;;;;5021357;28;20095;-72
2022/03/20 05:29:33;;;;;;;31.00;15.63;;;3.60;99.90;;;;;;5027869;28;20030;-72
2022/03/20 05:32:01;;;;;;;24.48;15.88;;;3.60;99.90;;;;;;5020544;28;20030;-72
2022/03/20 05:34:27;;;;;;;30.13;15.63;;;3.60;99.90;;;;;;5023563;28;20544;-72
2022/03/20 05:36:52;;;;;;;27.45;15.60;;;3.60;99.90;;;;;;5021507;28;20037;-72
2022/03/20 05:39:18;;;;;;;26.38;15.13;;;3.60;99.90;;;;;;5036647;28;20021;-73
2022/03/20 05:41:47;;;;;;;26.33;14.93;;;3.60;99.90;;;;;;5027855;28;20486;-72
2022/03/20 05:44:17;;;;;;;27.70;15.52;;;3.60;99.90;;;;;;5035153;28;20041;-72
2022/03/20 05:46:46;;;;;;;28.20;15.18;;;3.60;99.90;;;;;;5035641;28;20018;-72
2022/03/20 05:49:16;;;;;;;26.02;15.18;;;3.60;99.90;;;;;;5031773;28;20480;-72
2022/03/20 05:51:42;;;;;;;26.35;15.02;;;3.60;99.90;;;;;;5024236;28;20592;-73
2022/03/20 05:54:09;;;;;;;28.02;15.70;;;3.60;99.90;;;;;;5020757;28;20505;-71
2022/03/20 05:59:19;;;;;;;27.63;14.10;;;3.60;99.90;;;;;;5030125;28;20394;-72
2022/03/20 06:01:45;;;;;;;21.75;14.63;;;3.60;99.90;;;;;;5030687;28;20025;-73
2022/03/20 06:04:11;;;;;;;26.45;15.20;;;3.60;99.90;;;;;;5026991;28;20087;-72
2022/03/20 06:06:37;;;;;;;23.52;14.55;;;3.60;99.90;;;;;;5025896;28;20053;-72
2022/03/20 06:09:04;;;;;;;34.00;16.73;;;3.60;99.90;;;;;;5032686;28;20030;-72
2022/03/20 06:11:30;;;;;;;28.13;15.70;;;3.60;99.90;;;;;;5032330;28;20034;-71
2022/03/20 06:13:56;;;;;;;26.52;15.45;;;3.60;99.90;;;;;;5028997;28;20040;-71
2022/03/20 06:16:22;;;;;;;27.08;16.05;;;3.70;99.90;;;;;;5026074;28;20030;-71
2022/03/20 06:18:49;;;;;;;27.40;16.08;;;3.70;99.90;;;;;;5022595;28;20524;-72
2022/03/20 06:21:15;;;;;;;29.02;15.55;;;3.70;99.90;;;;;;5017622;28;20105;-72
2022/03/20 06:23:41;;;;;;;28.90;15.23;;;3.70;99.90;;;;;;5027853;28;20100;-72
2022/03/20 06:26:08;;;;;;;27.30;14.80;;;3.80;99.90;;;;;;5044778;28;20039;-72
2022/03/20 06:28:34;;;;;;;28.10;15.50;;;3.80;99.90;;;;;;5034280;28;20120;-72
2022/03/20 06:31:00;;;;;;;25.48;15.35;;;3.80;99.90;;;;;;5039615;28;20030;-72
2022/03/20 06:33:26;;;;;;;27.55;14.98;;;3.80;99.90;;;;;;5031314;28;20025;-72
2022/03/20 06:35:53;;;;;;;25.60;14.70;;;3.90;99.90;;;;;;5023317;28;20041;-73
2022/03/20 06:38:20;;;;;;;28.55;15.13;;;4.00;99.90;;;;;;5025011;28;20427;-73
2022/03/20 06:40:45;;;;;;;26.77;14.63;;;4.00;99.90;;;;;;5027912;28;20116;-73
2022/03/20 06:43:11;;;;;;;24.58;14.50;;;4.00;99.90;;;;;;5022411;28;20104;-73
2022/03/20 06:45:37;;;;;;;30.40;15.32;;;4.00;99.90;;;;;;5004977;28;20053;-73
2022/03/20 06:48:07;;;;;;;24.70;13.77;;;4.10;99.90;;;;;;5026435;28;20026;-73
2022/03/20 06:50:32;;;;;;;25.80;13.93;;;4.10;99.90;;;;;;5028869;28;20061;-73
2022/03/20 06:53:02;;;;;;;26.23;14.88;;;4.10;99.90;;;;;;5023810;28;20194;-72
2022/03/20 06:55:30;;;;;;;22.30;13.68;;;4.10;99.90;;;;;;5025439;28;20033;-73
2022/03/20 06:57:57;;;;;;;26.00;14.50;;;4.20;99.90;;;;;;5022163;28;20039;-73
2022/03/20 07:00:23;;;;;;;23.58;13.95;;;4.20;99.90;;;;;;5022838;28;20048;-71
2022/03/20 07:02:49;;;;;;;25.80;14.40;;;4.20;99.90;;;;;;5028432;28;20036;-71
2022/03/20 07:05:14;;;;;;;22.15;13.32;;;4.30;99.90;;;;;;5021738;28;20029;-72
2022/03/20 07:07:40;;;;;;;22.90;13.80;;;4.30;99.90;;;;;;5020079;28;20033;-72
2022/03/20 07:10:07;;;;;;;27.48;13.55;;;4.40;99.90;;;;;;5025324;28;20112;-72
2022/03/20 07:12:33;;;;;;;25.10;14.45;;;4.40;99.80;;;;;;5023944;28;20829;-72
2022/03/20 07:14:59;;;;;;;20.83;12.80;;;4.50;99.40;;;;;;5026261;28;20109;-71
2022/03/20 07:17:25;;;;;;;21.70;13.45;;;4.50;99.60;;;;;;5023872;28;20038;-72
2022/03/20 07:19:52;;;;;;;23.73;13.07;;;4.50;99.40;;;;;;5020679;28;20029;-72
2022/03/20 07:22:19;;;;;;;24.52;13.88;;;4.60;97.90;;;;;;5023558;28;20041;-72
2022/03/20 07:24:46;;;;;;;23.65;13.68;;;4.60;97.20;;;;;;5026170;28;20021;-72
2022/03/20 07:29:57;;;;;;;21.67;13.02;;;4.70;96.10;;;;;;5027508;28;20032;-72
2022/03/20 07:32:23;;;;;;;21.33;12.65;;;4.80;95.70;;;;;;5030808;28;20026;-71
2022/03/20 07:34:49;;;;;;;23.90;13.40;;;4.80;95.40;;;;;;5021134;28;20034;-71
2022/03/20 07:37:17;;;;;;;22.25;12.98;;;4.90;94.40;;;;;;5022232;28;20025;-72
2022/03/20 07:39:51;;;;;;;21.15;12.70;;;4.90;93.50;;;;;;5018242;28;20038;-72
2022/03/20 07:42:18;;;;;;;24.45;13.10;;;5.00;92.80;;;;;;5028407;28;20025;-72
2022/03/20 07:44:45;;;;;;;20.55;11.75;;;5.10;90.20;;;;;;5031106;28;20021;-72
2022/03/20 07:47:21;;;;;;;24.00;12.95;;;5.10;87.30;;;;;;5027312;28;20399;-72
2022/03/20 07:49:49;;;;;;;21.77;12.05;;;5.10;85.20;;;;;;5028162;28;20033;-72
2022/03/20 07:52:16;;;;;;;26.90;12.90;;;5.20;85.00;;;;;;5020966;28;20041;-72
2022/03/20 07:54:42;;;;;;;21.73;13.07;;;5.20;84.70;;;;;;5022538;28;20045;-72
2022/03/20 07:57:08;;;;;;;24.58;12.75;;;5.20;83.70;;;;;;5023391;28;20090;-72
2022/03/20 07:59:34;;;;;;;20.73;12.23;;;5.30;83.50;;;;;;5012944;28;20054;-71
2022/03/20 08:02:00;;;;;;;49.70;13.63;;;5.40;83.00;;;;;;5022951;28;20080;-72
2022/03/20 08:04:25;;;;;;;18.75;12.13;;;5.40;81.50;;;;;;5025076;28;20057;-71
2022/03/20 08:06:51;;;;;;;23.52;13.15;;;5.50;80.10;;;;;;5028704;28;20521;-73
2022/03/20 08:09:19;;;;;;;23.42;12.63;;;5.50;79.90;;;;;;5024777;28;20826;-71
2022/03/20 08:11:45;;;;;;;22.23;12.25;;;5.60;79.70;;;;;;5037907;28;20024;-71
2022/03/20 08:14:11;;;;;;;19.40;12.18;;;5.60;79.00;;;;;;5027095;28;20021;-71
2022/03/20 08:16:39;;;;;;;23.52;13.00;;;5.70;77.60;;;;;;5020356;28;20029;-70
2022/03/20 08:19:08;;;;;;;23.85;12.73;;;5.70;76.60;;;;;;5027036;28;20049;-71
2022/03/20 08:21:34;;;;;;;23.63;12.98;;;5.80;76.60;;;;;;5034078;28;20120;-71
2022/03/20 08:24:02;;;;;;;22.40;13.25;;;5.80;74.10;;;;;;5017035;28;20034;-71
2022/03/20 08:26:31;;;;;;;23.45;14.60;;;5.90;73.90;;;;;;5022694;28;20029;-71
2022/03/20 08:28:59;;;;;;;21.23;12.75;;;5.90;72.60;;;;;;5025684;28;20113;-70
2022/03/20 08:31:26;;;;;;;24.35;13.15;;;5.90;71.90;;;;;;5021287;28;20400;-71
2022/03/20 08:33:51;;;;;;;21.83;12.52;;;6.00;72.20;;;;;;5023252;28;20402;-71
2022/03/20 08:36:17;;;;;;;23.15;13.32;;;6.00;71.10;;;;;;5027794;28;20040;-70
2022/03/20 08:38:43;;;;;;;23.83;14.23;;;6.10;70.40;;;;;;5027833;28;20037;-71
2022/03/20 08:41:09;;;;;;;21.50;12.73;;;6.10;70.50;;;;;;5029731;28;20037;-71
2022/03/20 08:43:35;;;;;;;21.95;12.75;;;6.20;68.90;;;;;;5018524;28;20597;-72
2022/03/20 08:46:01;;;;;;;23.25;13.18;;;6.20;69.10;;;;;;5018874;28;20021;-73
2022/03/20 08:48:26;;;;;;;24.42;13.02;;;6.20;68.20;;;;;;5016605;28;20064;-72
2022/03/20 08:50:52;;;;;;;23.13;13.75;;;6.30;67.20;;;;;;5024852;28;20449;-72
2022/03/20 08:53:19;;;;;;;22.63;12.98;;;6.40;66.60;;;;;;5025293;28;20025;-72
2022/03/20 08:55:47;;;;;;;22.40;13.15;;;6.40;66.20;;;;;;5025649;28;20064;-73
2022/03/20 08:58:13;;;;;;;22.38;13.20;;;6.60;65.10;;;;;;5020682;28;20025;-75
2022/03/20 09:00:40;;;;;;;21.20;12.77;;;6.60;65.30;;;;;;5023223;28;20053;-72
2022/03/20 09:03:06;;;;;;;21.05;12.27;;;6.60;65.30;;;;;;5015600;28;20044;-74
2022/03/20 09:05:32;;;;;;;24.98;13.98;;;6.60;65.80;;;;;;5028155;28;20423;-72
2022/03/20 09:07:58;;;;;;;23.92;12.50;;;6.70;66.40;;;;;;5012779;28;20091;-72
2022/03/20 09:10:25;;;;;;;19.45;13.13;;;6.70;65.90;;;;;;5025970;28;20033;-73
2022/03/20 09:12:55;;;;;;;22.83;13.52;;;6.80;65.10;;;;;;5030787;28;20033;-74
2022/03/20 09:15:24;;;;;;;24.90;14.63;;;6.90;64.20;;;;;;5041633;28;20027;-75
2022/03/20 09:20:38;;;;;;;20.50;13.00;;;7.00;63.90;;;;;;5024990;23;20108;-74
2022/03/20 09:23:08;;;;;;;23.52;14.18;;;7.00;63.00;;;;;;5040880;28;20112;-76
2022/03/20 09:25:34;;;;;;;19.97;12.67;;;7.10;63.40;;;;;;5024378;28;20440;-77
2022/03/20 09:28:04;;;;;;;22.58;13.70;;;7.10;63.60;;;;;;5046608;28;20279;-75
2022/03/20 09:30:31;;;;;;;27.35;15.18;;;7.20;63.40;;;;;;5046725;28;20453;-76
2022/03/20 09:32:56;;;;;;;21.60;13.57;;;7.30;63.40;;;;;;5030318;28;20029;-74
2022/03/20 09:35:22;;;;;;;25.02;14.05;;;7.30;63.10;;;;;;5032990;28;20036;-75
2022/03/20 09:37:48;;;;;;;25.98;15.10;;;7.40;62.70;;;;;;5028040;28;20032;-72
2022/03/20 09:40:14;;;;;;;25.55;14.77;;;7.40;62.90;;;;;;5044535;28;20483;-71
2022/03/20 09:42:41;;;;;;;24.90;15.48;;;7.50;63.00;;;;;;5026458;28;20075;-71
2022/03/20 09:45:09;;;;;;;28.17;15.45;;;7.60;62.40;;;;;;5049042;28;20071;-72
2022/03/20 09:47:45;;;;;;;26.73;15.38;;;7.70;62.40;;;;;;5035307;28;20044;-71
2022/03/20 09:50:13;;;;;;;25.65;15.18;;;7.80;61.60;;;;;;5044886;28;20033;-73
2022/03/20 09:52:40;;;;;;;26.20;15.90;;;7.90;61.10;;;;;;5044865;28;20029;-73
2022/03/20 09:55:08;;;;;;;28.48;17.30;;;7.90;61.60;;;;;;5044668;28;20052;-73
2022/03/20 09:57:34;;;;;;;25.00;15.45;;;8.00;61.10;;;;;;5025862;28;20425;-75
2022/03/20 10:00:01;;;;;;;28.20;16.02;;;8.10;61.60;;;;;;5045192;28;20025;-75
2022/03/20 10:02:28;;;;;;;29.98;15.57;;;8.10;61.60;;;;;;5032518;28;20050;-74
2022/03/20 10:05:06;;;;;;;29.20;17.13;;;8.20;61.10;;;;;;5020006;28;20093;-78
2022/03/20 10:07:35;;;;;;;27.20;15.40;;;8.20;60.40;;;;;;5028381;28;20110;-74
2022/03/20 10:10:16;;;;;;;28.80;16.17;;;8.20;61.10;;;;;;5030345;28;20057;-74
2022/03/20 10:12:47;;;;;;;24.13;14.65;;;8.30;60.90;;;;;;5032247;28;20427;-73
2022/03/20 10:15:37;;;;;;;26.40;14.70;;;8.40;60.30;;;;;;5045309;28;20029;-74
2022/03/20 10:18:14;;;;;;;25.88;15.52;;;8.60;60.00;;;;;;5013839;28;20301;-76
2022/03/20 10:20:42;;;;;;;25.90;15.70;;;8.60;60.10;;;;;;5029014;28;20606;-75
2022/03/20 10:23:32;;;;;;;29.55;16.40;;;8.70;59.50;;;;;;5009711;28;20052;-75
2022/03/20 10:25:59;;;;;;;26.60;16.38;;;8.80;57.90;;;;;;5015279;28;20060;-77
2022/03/20 10:28:43;;;;;;;28.77;15.20;;;8.80;57.70;;;;;;5033266;28;20078;-77
2022/03/20 10:31:22;;;;;;;24.58;15.02;;;8.80;58.30;;;;;;5030010;28;20549;-76
2022/03/20 10:34:05;;;;;;;25.73;15.35;;;8.90;57.60;;;;;;5295772;22;20038;-76
2022/03/20 10:36:33;;;;;;;24.58;14.23;;;9.00;57.50;;;;;;4980666;28;20112;-77
2022/03/20 10:38:59;;;;;;;25.52;15.65;;;9.00;57.20;;;;;;4991917;28;20585;-78
2022/03/20 10:41:34;;;;;;;25.50;15.88;;;9.10;57.50;;;;;;4980768;28;20120;-78
2022/03/20 10:44:10;;;;;;;23.83;15.40;;;9.10;57.10;;;;;;5005656;28;20737;-80
2022/03/20 10:46:36;;;;;;;26.58;16.02;;;9.20;57.00;;;;;;4994456;28;20072;-78
2022/03/20 10:49:05;;;;;;;27.85;16.27;;;9.20;57.00;;;;;;5020680;28;20848;-72
2022/03/20 10:51:38;;;;;;;26.65;16.60;;;9.30;56.30;;;;;;5022457;28;20037;-71
2022/03/20 10:54:12;;;;;;;24.05;14.68;;;9.50;54.40;;;;;;5011803;28;20036;-71
2022/03/20 10:56:56;;;;;;;24.05;15.43;;;9.50;55.00;;;;;;5019198;28;20029;-73
2022/03/20 10:59:22;;;;;;;21.50;14.45;;;9.60;54.80;;;;;;5003158;28;20044;-72
2022/03/20 11:01:48;;;;;;;25.27;14.40;;;9.70;53.90;;;;;;5021119;28;20022;-73
2022/03/20 11:04:15;;;;;;;28.90;15.70;;;9.80;54.20;;;;;;5020879;28;20029;-71
2022/03/20 11:06:46;;;;;;;24.45;14.23;;;9.90;53.30;;;;;;5006026;28;20033;-73
2022/03/20 11:11:46;;;;;;;23.85;15.05;;;10.40;52.00;;;;;;5036811;28;20049;-72
2022/03/20 11:14:18;;;;;;;27.70;15.20;;;10.80;51.80;;;;;;5029296;28;20052;-72
2022/03/20 11:16:48;;;;;;;21.50;14.25;;;12.00;50.50;;;;;;5025433;28;20661;-72
2022/03/20 11:19:17;;;;;;;26.10;14.18;;;13.90;50.60;;;;;;5024111;28;20042;-72
2022/03/20 11:21:49;;;;;;;20.77;15.02;;;16.20;43.90;;;;;;4991523;28;20029;-71
2022/03/20 11:24:16;;;;;;;20.27;14.65;;;18.10;40.70;;;;;;5022808;28;20079;-72
2022/03/20 11:26:44;;;;;;;19.88;13.93;;;19.20;37.00;;;;;;4994998;28;20025;-72
2022/03/20 11:29:12;;;;;;;19.00;14.35;;;20.10;34.90;;;;;;5010693;28;20030;-71
2022/03/20 11:31:38;;;;;;;20.50;13.25;;;20.30;33.70;;;;;;5029007;28;20139;-71
2022/03/20 11:34:06;;;;;;;20.42;13.60;;;20.70;31.80;;;;;;5008818;28;20037;-71
2022/03/20 11:37:06;;;;;;;19.85;14.25;;;20.70;31.30;;;;;;5003697;28;20037;-72
2022/03/20 11:39:34;;;;;;;17.90;13.83;;;20.80;31.30;;;;;;5007855;28;20110;-72
2022/03/20 11:42:19;;;;;;;21.08;14.52;;;20.60;30.60;;;;;;5010212;28;20068;-71
2022/03/20 11:45:14;;;;;;;21.35;15.00;;;20.30;30.10;;;;;;5023401;28;20497;-71
2022/03/20 11:47:42;;;;;;;23.33;14.73;;;20.10;29.90;;;;;;5024321;28;20033;-71
2022/03/20 11:50:08;;;;;;;20.90;14.35;;;19.80;31.20;;;;;;5022594;28;20025;-73
2022/03/20 11:53:04;;;;;;;21.80;15.02;;;19.20;32.30;;;;;;5023362;28;20659;-71
2022/03/20 11:55:53;;;;;;;20.52;14.07;;;18.70;32.30;;;;;;5022882;28;20052;-72
2022/03/20 11:58:21;;;;;;;22.70;15.40;;;17.70;34.80;;;;;;5020027;28;20033;-74
2022/03/20 12:01:02;;;;;;;21.98;14.70;;;16.90;33.70;;;;;;5009233;28;20108;-74
2022/03/20 12:03:31;;;;;;;;;;;16.00;35.30;;;;;;5007084;28;20041;-72
2022/03/20 12:06:09;;;;;;;22.35;15.45;;;15.20;36.40;;;;;;5004109;28;20387;-72
2022/03/20 12:08:59;;;;;;;27.60;15.70;;;14.70;37.70;;;;;;5024214;28;20052;-72
2022/03/20 12:11:40;;;;;;;26.05;16.05;;;14.30;38.20;;;;;;5028540;28;20115;-72
2022/03/20 12:14:30;;;;;;;23.75;15.38;;;14.10;38.30;;;;;;5001305;28;20058;-72
2022/03/20 12:16:58;;;;;;;20.40;15.38;;;14.10;38.90;;;;;;5038687;28;20485;-73
2022/03/20 12:19:42;;;;;;;25.58;16.50;;;14.30;39.80;;;;;;5033102;28;20120;-73
2022/03/20 12:22:14;;;;;;;21.35;16.10;;;14.60;39.00;;;;;;4990330;28;20061;-72
2022/03/20 12:24:52;;;;;;;23.90;15.30;;;14.50;39.30;;;;;;5027207;28;20014;-73
2022/03/20 12:27:24;;;;;;;24.33;15.30;;;14.70;39.60;;;;;;5025485;28;20093;-74
2022/03/20 12:29:50;;;;;;;22.52;15.98;;;15.00;38.90;;;;;;5023528;28;20053;-74
2022/03/20 12:32:17;;;;;;;23.10;15.07;;;15.20;36.30;;;;;;5024291;28;20017;-73
2022/03/20 12:34:56;;;;;;;23.50;15.25;;;15.20;34.80;;;;;;5009693;28;20128;-73
2022/03/20 12:37:28;;;;;;;21.00;14.80;;;14.80;36.70;;;;;;5025470;28;20044;-73
2022/03/20 12:39:55;;;;;;;22.90;15.30;;;14.30;36.10;;;;;;5020631;28;20057;-73
2022/03/20 12:42:25;;;;;;;25.63;15.57;;;13.90;37.50;;;;;;5024109;28;20555;-73
2022/03/20 12:44:52;;;;;;;24.48;15.60;;;13.60;36.50;;;;;;5008322;28;20535;-73
2022/03/20 12:47:20;;;;;;;22.00;14.90;;;13.30;37.00;;;;;;5021422;28;20034;-73
2022/03/20 12:50:13;;;;;;;26.55;15.82;;;13.10;38.80;;;;;;5022725;28;20478;-74
2022/03/20 12:52:39;;;;;;;27.35;15.90;;;12.90;38.40;;;;;;5024598;28;20056;-79
2022/03/20 12:55:10;;;;;;;22.00;15.45;;;12.70;38.20;;;;;;5015423;28;20018;-80
2022/03/20 12:57:37;;;;;;;24.27;14.90;;;12.60;38.80;;;;;;5015599;28;20049;-78
2022/03/20 13:00:07;;;;;;;23.35;14.52;;;12.50;39.00;;;;;;5008804;28;20492;-77
2022/03/20 13:03:10;;;;;;;21.25;14.48;;;12.40;39.60;;;;;;5004943;28;20034;-81
2022/03/20 13:05:46;;;;;;;22.75;14.73;;;12.30;39.10;;;;;;4988508;28;20037;-78
2022/03/20 13:08:22;;;;;;;23.63;14.43;;;12.10;38.80;;;;;;5006314;28;20040;-78
2022/03/20 13:10:50;;;;;;;23.00;14.32;;;12.10;38.90;;;;;;5022330;28;20036;-79
2022/03/20 13:13:20;;;;;;;26.92;14.57;;;12.00;39.40;;;;;;5013059;28;20025;-80
2022/03/20 13:15:46;;;;;;;28.38;15.80;;;11.90;39.50;;;;;;5020126;28;20527;-79